Terminal Aerodrome Forecast
Issued by NWS Charleston, WV

Current Version | Previous Version | Graphics & Text | Print | Product List | Glossary On
Versions: 1 2 3 4 5 6 7 8 9 10 11 12 13 14 15 16 17 18 19 20 21 22 23 24 25 26
000
FTUS41 KRLX 051600 AAC
TAFBKW
TAF AMD
KBKW 051610Z 0516/0612 35010KT 1SM -SN BR OVC006
      TEMPO 0516/0519 1/4SM +SN FG OVC003
     FM052000 34010KT 2SM -SN BR OVC008
     FM052300 34010KT 4SM -SN OVC010
     FM060100 33007KT P6SM -SN OVC015
     FM060800 33002KT P6SM SCT020=

USA.gov is the U.S. government's official web portal to all federal, state and local government web resources and services.